Latest Weather Observations for Macquarie Island

IDT60801

Issued at 5:02 pm EST Thursday 27 April 2017 (issued every 30 minutes, with the page automatically refreshed every 10 minutes)

About weather observations | Map of weather stations | Latest weather observations for TAS | Other Formats
Station Details ID: 300004 Name: MACQUARIE ISLAND Lat: -54.50 Lon: 158.94 Height: 6.0 m
Data from the previous 72 hours. | See also: Recent months at Macquarie Island
Date/Time
EST
Temp
°C
App
Temp
°C
Dew
Point
°C
Rel
Hum
%
Delta-T
°C
Wind Press
QNH
hPa
Press
MSL
hPa
Rain since
9am
mm
Dir  Spd
km/h
Gust
km/h
Spd
kts
Gust
kts
27/05:00pm 5.9 -7.9 3.1 82 1.2 N 65 78 35 42 997.3 - 0.4
27/04:45pm 6.1 -7.3 3.3 82 1.2 NNW 63 82 34 44 997.6 - 0.2
27/04:30pm 5.8 -8.1 2.6 80 1.3 N 65 82 35 44 997.5 - 0.2
27/04:00pm 6.4 -7.5 2.9 78 1.5 N 65 78 35 42 998.1 - 0.0
27/03:30pm 6.2 -7.7 2.8 79 1.4 N 65 80 35 43 998.7 - 0.0
27/03:00pm 6.1 -8.5 2.9 80 1.3 N 69 83 37 45 999.3 999.6 0.0
27/02:30pm 6.1 -7.0 3.1 81 1.2 N 61 74 33 40 999.8 - 0.0
27/02:00pm 5.7 -7.5 2.5 80 1.3 N 61 70 33 38 1000.3 - 0.0
27/01:30pm 6.1 -6.6 2.9 80 1.3 N 59 70 32 38 1000.8 - 0.0
27/01:00pm 6.2 -7.1 1.7 73 1.8 NNW 61 76 33 41 1001.4 - 0.0
27/12:30pm 5.9 -6.1 1.8 75 1.6 N 54 65 29 35 1002.0 - 0.0
27/12:00pm 6.6 -5.3 2.1 73 1.8 N 54 67 29 36 1002.3 1002.6 0.0
27/11:30am 6.4 -5.4 2.5 76 1.6 N 54 65 29 35 1003.0 - 0.0
27/11:00am 5.9 -6.0 2.0 76 1.6 N 54 63 29 34 1003.7 - 0.0
27/10:30am 6.1 -5.2 1.2 71 1.9 NNW 50 57 27 31 1004.2 - 0.0
27/10:00am 6.1 -4.8 1.4 72 1.9 NNW 48 56 26 30 1004.8 - 0.0
27/09:30am 5.7 -4.1 2.2 78 1.4 N 43 50 23 27 1005.2 - 0.0
27/09:00am 5.6 -4.8 2.1 78 1.4 NNW 46 56 25 30 1005.4 1005.7 3.6
27/08:30am 5.1 -3.9 2.5 83 1.1 NNW 39 44 21 24 1005.8 - 3.6
27/08:04am 3.7 -6.3 1.3 84 0.9 NNW 43 61 23 33 1006.5 - 3.6
27/08:00am 3.1 -8.3 0.8 85 0.9 NNW 50 65 27 35 1006.7 - 3.6
27/07:52am 3.9 -6.3 1.1 82 1.1 NNW 44 65 24 35 1006.3 - 3.2
27/07:30am 5.1 -4.4 1.6 78 1.4 NNW 41 50 22 27 1006.5 - 3.2
27/07:13am 4.5 -2.8 0.3 74 1.6 NW 28 46 15 25 1006.5 - 3.2
27/07:00am 3.8 -3.8 0.8 81 1.1 NNW 30 39 16 21 1006.7 - 3.2
27/06:55am 3.5 -4.7 0.6 81 1.1 NNW 33 52 18 28 1006.7 - 3.0
27/06:30am 4.7 -3.9 0.1 72 1.7 NNW 35 44 19 24 1006.6 - 3.0
27/06:00am 4.4 -5.5 -0.6 70 1.9 NW 41 50 22 27 1006.4 1006.7 3.0
27/05:30am 4.2 -5.3 -0.4 72 1.7 NW 39 44 21 24 1006.3 - 3.0
27/05:25am 4.2 -5.3 -0.4 72 1.7 WNW 39 44 21 24 1006.3 - 3.0
27/05:00am 4.1 -3.4 1.1 81 1.2 NNW 30 39 16 21 1006.0 - 3.0
27/04:30am 3.3 -4.8 1.2 86 0.8 NNW 33 41 18 22 1006.1 - 3.0
27/04:00am 2.5 -7.8 0.6 87 0.7 NW 44 65 24 35 1006.0 - 2.8
27/03:54am 4.2 -4.5 1.7 84 1.0 NNW 37 57 20 31 1005.8 - 2.6
27/03:30am 4.2 -4.5 -0.2 73 1.6 WNW 35 46 19 25 1005.8 - 2.6
27/03:00am 4.1 -3.8 1.3 82 1.1 NW 32 39 17 21 1005.6 1005.9 2.6
27/02:30am 3.5 -5.8 0.6 81 1.1 NW 39 46 21 25 1005.8 - 2.6
27/02:00am 4.0 -4.3 -0.2 74 1.6 WNW 33 46 18 25 1005.5 - 2.6
27/01:56am 3.8 -3.6 -0.4 74 1.6 WNW 28 46 15 25 1005.5 - 2.6
27/01:30am 3.7 -4.4 -0.1 76 1.4 W 32 46 17 25 1005.7 - 2.6
27/01:00am 3.9 -6.0 -1.1 70 1.8 WNW 41 48 22 26 1005.5 - 2.6
27/12:30am 3.3 -3.9 0.4 81 1.1 NW 28 35 15 19 1005.4 - 2.6
27/12:00am 2.9 -5.6 0.6 85 0.9 NW 35 43 19 23 1005.7 1006.0 2.6
 
Date/Time
EST
Temp
°C
App
Temp
°C
Dew
Point
°C
Rel
Hum
%
Delta-T
°C
Wind Press
QNH
hPa
Press
MSL
hPa
Rain since
9am
mm
Dir  Spd
km/h
Gust
km/h
Spd
kts
Gust
kts
26/11:53pm 2.7 -6.7 -0.1 82 1.0 NW 39 43 21 23 1005.7 - 2.6
26/11:44pm 2.6 -7.2 -0.2 82 1.0 W 41 59 22 32 1005.8 - 2.6
26/11:30pm 3.8 -6.0 0.1 77 1.4 WNW 41 57 22 31 1005.4 - 2.6
26/11:00pm 3.5 -5.5 0.4 80 1.2 WNW 37 43 20 23 1005.1 - 2.6
26/10:30pm 2.5 -4.7 0.6 87 0.7 WNW 28 35 15 19 1004.9 - 2.6
26/10:00pm 2.1 -6.5 0.3 88 0.7 WNW 35 48 19 26 1004.7 - 2.6
26/09:50pm 1.4 -7.6 -0.2 89 0.6 WNW 37 56 20 30 1004.4 - 2.4
26/09:36pm 3.5 -6.7 0.0 78 1.3 WNW 43 54 23 29 1004.1 - 2.4
26/09:30pm 3.3 -4.9 -1.1 73 1.6 W 32 39 17 21 1004.1 - 2.4
26/09:19pm 3.4 -5.0 -1.3 71 1.7 W 33 41 18 22 1004.0 - 2.4
26/09:00pm 3.4 -5.8 -1.7 69 1.8 WNW 37 44 20 24 1003.6 1003.9 2.4
26/08:30pm 3.5 -5.6 -0.7 74 1.5 WNW 37 46 20 25 1003.1 - 2.4
26/08:00pm 3.3 -6.7 -1.8 69 1.8 WNW 41 52 22 28 1002.5 - 2.4
26/07:30pm 3.3 -6.5 -2.8 64 2.1 W 39 50 21 27 1001.9 - 2.4
26/07:00pm 3.6 -6.6 -3.0 62 2.3 W 41 54 22 29 1001.5 - 2.4
26/06:30pm 3.6 -6.4 -5.1 53 2.8 W 39 48 21 26 1001.0 - 2.4
26/06:00pm 3.6 -6.4 -4.6 55 2.7 W 39 48 21 26 1000.4 1000.7 2.4
26/05:30pm 3.5 -6.4 -3.7 59 2.4 W 39 56 21 30 999.8 - 2.4
26/05:00pm 3.5 -5.0 -1.8 68 1.9 W 33 57 18 31 998.8 - 2.4
26/04:39pm 3.2 -4.4 -2.1 68 1.9 W 28 54 15 29 998.5 - 2.4
26/04:30pm 3.3 -3.4 -0.9 74 1.5 WSW 24 37 13 20 998.3 - 2.4
26/04:00pm 3.0 -3.6 -0.5 78 1.3 WSW 24 48 13 26 997.7 - 2.4
26/03:46pm 2.6 -4.7 -0.3 81 1.1 SW 28 57 15 31 997.4 - 2.2
26/03:30pm 3.6 -3.0 -0.6 74 1.5 WSW 24 37 13 20 996.7 - 2.0
26/03:10pm 4.2 -5.4 1.2 81 1.2 W 41 59 22 32 996.2 - 2.0
26/03:00pm 4.3 -1.7 0.8 78 1.4 SW 22 33 12 18 995.9 996.2 2.0
26/02:30pm 4.1 -2.2 1.3 82 1.1 WSW 24 46 13 25 995.2 - 2.0
26/02:16pm 3.5 -2.4 1.4 86 0.8 WSW 22 35 12 19 995.0 - 2.0
26/02:00pm 3.2 -6.7 1.4 88 0.7 W 43 70 23 38 994.6 - 1.8
26/01:52pm 3.9 -3.9 1.8 86 0.8 WNW 32 54 17 29 994.3 - 1.0
26/01:30pm 4.3 -0.1 2.5 88 0.7 W 15 32 8 17 993.8 - 1.0
26/01:00pm 4.1 -5.7 2.0 86 0.8 W 43 65 23 35 993.3 - 0.8
26/12:58pm 4.5 -5.3 2.2 85 0.9 W 43 65 23 35 993.1 - 0.4
26/12:56pm 5.1 -2.1 2.8 85 0.9 WSW 30 59 16 32 992.9 - 0.4
26/12:30pm 4.7 -2.1 2.9 88 0.7 SW 28 43 15 23 992.6 - 0.4
26/12:00pm 5.3 0.0 2.8 84 1.0 SSW 20 26 11 14 992.3 992.6 0.0
26/11:30am 5.2 0.1 3.1 86 0.9 SSW 19 26 10 14 992.1 - 0.0
26/11:00am 4.6 0.1 2.3 85 0.9 SSW 15 24 8 13 992.2 - 0.0
26/10:30am 4.6 0.5 2.5 86 0.8 S 13 20 7 11 992.0 - 0.0
26/10:00am 4.4 -0.5 2.1 85 0.9 S 17 24 9 13 991.7 - 0.0
26/09:30am 4.9 -0.7 3.2 89 0.7 S 22 35 12 19 991.2 - 0.0
26/09:00am 4.6 -0.5 2.8 88 0.7 SSW 19 26 10 14 990.9 991.2 2.8
26/08:30am 4.5 -0.6 2.8 89 0.7 SSW 19 28 10 15 990.8 - 2.6
26/08:00am 4.3 -0.8 2.8 90 0.6 SSW 19 28 10 15 990.4 - 2.6
26/07:30am 4.8 -0.4 3.5 91 0.5 SSW 20 30 11 16 990.0 - 2.4
26/07:00am 5.1 -2.8 4.1 93 0.4 S 35 48 19 26 989.5 - 2.4
26/06:30am 5.9 -1.0 4.7 92 0.5 S 30 41 16 22 989.0 - 2.2
26/06:00am 7.2 2.7 6.1 93 0.5 W 19 28 10 15 988.8 989.1 2.2
26/05:30am 7.6 0.1 6.5 93 0.5 N 35 39 19 21 988.6 - 2.2
26/05:00am 7.6 -0.2 6.5 93 0.5 N 37 43 20 23 988.7 - 2.2
26/04:30am 7.6 0.1 6.5 93 0.5 NNW 35 41 19 22 988.9 - 2.2
26/04:00am 7.6 -0.2 6.5 93 0.5 NNW 37 43 20 23 989.2 - 2.2
26/03:30am 7.5 -0.4 6.4 93 0.5 N 37 41 20 22 989.4 - 2.2
26/03:00am 7.4 -0.5 6.2 92 0.6 N 37 43 20 23 989.7 990.0 2.2
26/02:30am 7.4 -0.1 6.2 92 0.5 NNW 35 39 19 21 989.8 - 2.2
26/02:00am 7.3 0.3 6.1 92 0.5 NNW 32 35 17 19 989.9 - 2.0
26/01:30am 7.4 0.3 6.3 93 0.5 NNW 33 39 18 21 990.5 - 2.0
26/01:00am 7.3 0.2 6.2 93 0.5 NNW 33 39 18 21 990.8 - 2.0
26/12:30am 7.3 0.2 6.2 93 0.5 NNW 33 39 18 21 991.0 - 2.0
26/12:00am 7.2 0.0 6.1 93 0.5 NNW 33 41 18 22 991.1 991.4 2.0
 
Date/Time
EST
Temp
°C
App
Temp
°C
Dew
Point
°C
Rel
Hum
%
Delta-T
°C
Wind Press
QNH
hPa
Press
MSL
hPa
Rain since
9am
mm
Dir  Spd
km/h
Gust
km/h
Spd
kts
Gust
kts
25/11:30pm 7.1 -0.1 6.0 93 0.5 NNW 33 39 18 21 991.1 - 2.0
25/11:00pm 7.1 0.9 6.2 94 0.4 NNW 28 32 15 17 991.0 - 2.0
25/10:30pm 7.2 1.0 6.3 94 0.4 NNW 28 33 15 18 991.4 - 2.0
25/10:00pm 7.5 2.2 6.8 95 0.3 NNW 24 32 13 17 991.7 - 2.0
25/09:30pm 7.6 0.6 7.0 96 0.3 NNW 33 43 18 23 991.7 - 2.0
25/09:00pm 7.7 -0.4 7.1 96 0.3 NNW 39 44 21 24 991.8 992.1 2.0
25/08:30pm 7.8 -0.7 7.1 95 0.3 N 41 48 22 26 991.7 - 2.0
25/08:00pm 7.8 -1.0 7.1 95 0.3 N 43 48 23 26 991.8 - 1.8
25/07:30pm 8.0 -0.8 7.2 95 0.4 N 43 48 23 26 992.1 - 1.8
25/07:00pm 8.1 -1.6 7.3 95 0.4 N 48 54 26 29 992.3 - 1.6
25/06:30pm 8.0 -0.8 7.2 95 0.4 N 43 50 23 27 992.7 - 1.6
25/06:00pm 7.9 -0.9 7.1 95 0.4 N 43 48 23 26 993.1 993.4 1.4
25/05:30pm 8.0 -1.0 7.2 95 0.4 N 44 50 24 27 993.5 - 1.2
25/05:00pm 7.9 -1.2 7.0 94 0.4 N 44 56 24 30 993.9 - 0.8
25/04:30pm 7.9 -1.2 7.0 94 0.4 N 44 52 24 28 994.4 - 0.4
25/04:00pm 8.0 -1.0 7.1 94 0.4 N 44 54 24 29 995.0 - 0.2
25/03:30pm 8.1 -2.4 7.2 94 0.4 N 52 57 28 31 995.4 - 0.0
25/03:00pm 8.2 -3.3 7.3 94 0.4 N 57 65 31 35 995.7 996.0 0.0
25/02:30pm 8.1 -2.0 7.2 94 0.4 N 50 56 27 30 996.2 - 0.0
25/02:00pm 8.0 -1.4 7.1 94 0.4 N 46 52 25 28 996.8 - 0.0
25/01:30pm 8.1 -1.7 7.0 93 0.5 N 48 57 26 31 997.2 - 0.0
25/01:00pm 8.2 -0.9 6.8 91 0.6 N 44 50 24 27 997.7 - 0.0
25/12:30pm 8.4 -1.5 6.5 88 0.9 N 48 57 26 31 998.1 - 0.0
25/12:00pm 8.3 -2.0 6.4 88 0.9 N 50 57 27 31 998.5 998.8 0.0
25/11:30am 8.5 -1.8 6.5 87 0.9 N 50 56 27 30 999.0 - 0.0
25/11:00am 8.5 -1.5 6.1 85 1.1 N 48 56 26 30 999.4 - 0.0
25/10:30am 8.4 -2.0 6.0 85 1.1 N 50 63 27 34 999.8 - 0.0
25/10:00am 8.3 -2.9 6.1 86 1.0 N 54 63 29 34 999.8 - 0.0
25/09:30am 8.0 -1.7 6.0 87 0.9 N 46 54 25 29 1000.3 - 0.0
25/09:00am 8.1 -1.7 5.2 82 1.3 N 46 52 25 28 1000.4 1000.7 0.0
25/08:30am 7.9 -1.4 5.0 82 1.3 NNW 43 50 23 27 1000.7 - 0.0
25/08:00am 7.7 -2.0 5.7 87 0.9 NNW 46 52 25 28 1001.1 - 0.0
25/07:30am 7.7 -2.1 5.5 86 1.0 NNW 46 54 25 29 1001.0 - 0.0
25/07:00am 7.8 -2.4 5.1 83 1.2 NNW 48 59 26 32 1001.1 - 0.0
25/06:30am 7.7 -1.8 5.0 83 1.2 NNW 44 50 24 27 1001.2 - 0.0
25/06:00am 7.7 -1.7 5.5 86 1.0 NNW 44 52 24 28 1001.3 1001.6 0.0
25/05:30am 7.8 -1.1 5.3 84 1.1 NNW 41 48 22 26 1001.6 - 0.0
25/05:00am 7.8 -1.6 5.3 84 1.1 NNW 44 52 24 28 1001.6 - 0.0
25/04:30am 7.8 -1.5 4.9 82 1.3 NNW 43 54 23 29 1001.6 - 0.0
25/04:00am 7.6 -0.9 5.1 84 1.1 NNW 39 50 21 27 1001.8 - 0.0
25/03:51am 7.7 -1.6 5.2 84 1.1 NNW 43 61 23 33 1001.9 - 0.0
25/03:30am 7.8 -1.6 5.4 85 1.1 NNW 44 57 24 31 1002.0 - 0.0
25/03:00am 7.8 -2.0 5.4 85 1.1 NNW 46 57 25 31 1002.1 1002.4 0.0
25/02:30am 7.8 -1.6 5.6 86 1.0 NNW 44 57 24 31 1002.0 - 0.0
25/02:00am 7.8 -1.4 5.4 85 1.1 NNW 43 56 23 30 1002.2 - 0.0
25/01:30am 7.5 -3.3 5.8 89 0.8 NW 52 59 28 32 1002.3 - 0.0
25/01:00am 7.5 -3.7 6.0 90 0.7 NW 54 65 29 35 1002.2 - 0.0
25/12:30am 7.6 -2.9 5.7 88 0.9 NW 50 65 27 35 1002.2 - 0.0
25/12:00am 7.6 -4.0 5.7 88 0.9 NW 56 69 30 37 1002.1 1002.4 0.0
 
Date/Time
EST
Temp
°C
App
Temp
°C
Dew
Point
°C
Rel
Hum
%
Delta-T
°C
Wind Press
QNH
hPa
Press
MSL
hPa
Rain since
9am
mm
Dir  Spd
km/h
Gust
km/h
Spd
kts
Gust
kts
24/11:30pm 8.0 -2.5 5.5 84 1.1 NW 50 63 27 34 1002.0 - 0.0
24/11:00pm 7.9 -3.8 5.5 85 1.1 NW 56 69 30 37 1001.8 - 0.0
24/10:30pm 8.0 -3.8 5.5 84 1.1 NW 57 72 31 39 1001.8 - 0.0
24/10:00pm 8.0 -3.9 5.1 82 1.3 NW 57 69 31 37 1001.7 - 0.0
24/09:30pm 8.0 -2.6 5.3 83 1.2 NNW 50 63 27 34 1001.7 - 0.0
24/09:05pm 7.9 -3.1 5.2 83 1.2 NW 52 70 28 38 1001.6 - 0.0
24/09:00pm 7.9 -3.4 5.2 83 1.2 NW 54 70 29 38 1001.6 1001.9 0.0
24/08:30pm 8.0 -3.4 4.9 81 1.4 NNW 54 74 29 40 1001.3 - 0.0
24/08:11pm 7.9 -3.4 5.2 83 1.2 NNW 54 74 29 40 1001.2 - 0.0
24/08:00pm 8.0 -4.3 5.1 82 1.3 NW 59 72 32 39 1001.1 - 0.0
24/07:30pm 8.0 -3.9 5.1 82 1.3 NW 57 72 31 39 1001.0 - 0.0
24/07:00pm 8.1 -4.2 5.0 81 1.4 NW 59 72 32 39 1001.2 - 0.0
24/06:32pm 8.0 -5.5 4.8 80 1.4 NW 65 83 35 45 1001.1 - 0.0
24/06:30pm 8.1 -5.0 4.9 80 1.4 NW 63 80 34 43 1001.1 - 0.0
24/06:17pm 8.1 -3.9 4.5 78 1.6 NW 57 76 31 41 1000.9 - 0.0
24/06:00pm 8.1 -4.3 4.9 80 1.4 NW 59 74 32 40 1001.0 1001.3 0.0
24/05:30pm 8.1 -4.3 4.9 80 1.4 NW 59 78 32 42 1000.8 - 0.0
24/05:09pm 8.0 -4.0 4.9 81 1.4 NW 57 76 31 41 1001.0 - 0.0

Other Formats:

Comma delimited format used in spreadsheet applications
http://www.bom.gov.au/fwo/IDT60801/IDT60801.94998.axf

JavaScript Object Notation format (JSON) in row-major order
http://www.bom.gov.au/fwo/IDT60801/IDT60801.94998.json